Historyczne dane pomiarowe

Dodano dane terminowe – wersja testowa.

Dane z okresu 1951-2019

Wersja bazy: 1.34 [2019-03-16, lista zmian], aktualizacja planowana na 2019-04-15

Dane meteo z obszaru Polski uzyskane na podstawie danych udostępnionych przez Instytut Meteorologii i Gospodarki Wodnej – Państwowy Instytut Badawczy.

 

Wybierz Datę:    

       

TemperaturaWilgotnośćWiatrCiśnienieOpadyŚniegCzas trwania zjawisk
 Stacja t tx tn tng RH VA  wxwx mslp ppp RRR   cm mm wxwxwxwxwxwxwx
1956-10-11 1.2 9.2 -2.1- 84.5- 3.7 2.3---- 0.0------------
1956-10-12 6.7 12.2 -2.5- 79.3- 5.0 3.3---- 0.0------------
1956-10-13 9.0 10.5 3.7- 66.3- 8.0 5.7---- 0.5------------
1956-10-14 8.7 11.5 6.8- 74.8- 5.3 9.7---- 2.3------------
1956-10-15 2.1 10.3 -1.4- 86.8- 1.3 2.7---- 0.0------------
1956-10-16 1.2 11.4 -4.3- 84.0- 0.0 2.0---- 0.0------------
1956-10-17 4.0 14.3 -3.2- 86.3- 0.3 2.3---- 0.0------------
1956-10-18 9.6 15.4 -0.8- 78.5- 7.0 3.0---- 0.3------------
1956-10-19 11.0 13.4 7.7- 83.5- 8.0 3.3---- 0.5------------
1956-10-20 10.5 12.5 7.5- 97.5- 8.0 2.0---- 1.8------------
1956-10-21 8.3 15.7 3.7- 93.0- 5.3 1.0---- 0.7------------
1956-10-22 8.1 18.8 1.7- 87.5- 1.3 1.3---- 0.1------------
1956-10-23 6.8 16.5 1.4- 89.0- 0.0 1.0---- 0.2------------
1956-10-24 6.4 15.1 2.4- 89.0- 2.3 2.0---- 0.0------------
1956-10-25 6.7 17.5 1.0- 87.3- 0.0 2.7---- 0.2------------
1956-10-26 7.5 16.5 2.0- 84.0- 3.0 2.3---- 0.0------------
1956-10-27 11.1 14.0 2.3- 78.3- 6.3 3.3---- 0.1------------
1956-10-28 8.3 14.5 4.8- 80.5- 5.0 4.3---- 1.0------------
1956-10-29 3.5 6.5 -1.7- 78.5- 7.3 3.0---- 0.5------------
1956-10-30 3.7 5.5 2.5- 93.5- 8.0 1.0---- 0.3------------
1956-10-31 -5.2 4.1 -7.7- 92.3- 5.3 2.7---- 0.2------------
1956-11-01 -3.4 7.2-11.3- 80.8- 0.7 2.3---- 0.0------------
1956-11-02 -0.2 4.6 -7.3- 79.8- 5.0 2.3---- 0.0------------
1956-11-03 -1.3 0.6 -2.6- 96.0- 7.7 2.3---- 0.5------------
1956-11-04 -3.7 2.7 -6.5- 87.5- 1.7 1.0---- 0.0------------
1956-11-05 2.6 5.0 -7.3- 74.8- 8.0 4.3---- 8.5------------
1956-11-06 1.0 4.9 -0.1- 75.8- 7.7 5.7---- 2.7------------
1956-11-07 -0.4 2.2 -1.7- 68.0- 8.0 8.0---- 2.7-- 2---------
1956-11-08 -8.5 -0.5-10.9- 76.0- 3.3 2.7---- 0.0-- 5---------
1956-11-09-10.8 -1.4-15.0- 84.3- 4.7 0.7---- 0.0-- 3---------
121.2 ms

 

Źródłem pochodzenia danych jest Instytut Meteorologii i Gospodarki Wodnej – Państwowy Instytut Badawczy. Dane Instytutu Meteorologii i Gospodarki Wodnej – Państwowego Instytutu Badawczego zostały przetworzone.

Dane źródłowe można odnaleźć na stronie https://dane.imgw.pl